sensor_id;sensor_type;location;lat;lon;timestamp;temperature;humidity
70548;DHT22;58099;43.406;3.698;2022-10-16T00:01:51;20.60;99.90
70548;DHT22;58099;43.406;3.698;2022-10-16T00:04:17;20.60;99.90
70548;DHT22;58099;43.406;3.698;2022-10-16T00:06:43;20.60;99.90
70548;DHT22;58099;43.406;3.698;2022-10-16T00:09:08;20.50;99.90
70548;DHT22;58099;43.406;3.698;2022-10-16T00:11:36;20.50;99.90
70548;DHT22;58099;43.406;3.698;2022-10-16T00:14:05;20.50;99.90
70548;DHT22;58099;43.406;3.698;2022-10-16T00:16:31;20.50;99.90
70548;DHT22;58099;43.406;3.698;2022-10-16T00:18:57;20.50;99.90
70548;DHT22;58099;43.406;3.698;2022-10-16T00:21:26;20.50;99.90
70548;DHT22;58099;43.406;3.698;2022-10-16T00:23:54;20.50;99.90
70548;DHT22;58099;43.406;3.698;2022-10-16T00:26:20;20.50;99.90
70548;DHT22;58099;43.406;3.698;2022-10-16T00:28:47;20.50;99.90
70548;DHT22;58099;43.406;3.698;2022-10-16T00:31:14;20.50;99.90
70548;DHT22;58099;43.406;3.698;2022-10-16T00:33:40;20.50;99.90
70548;DHT22;58099;43.406;3.698;2022-10-16T00:36:08;20.50;99.90
70548;DHT22;58099;43.406;3.698;2022-10-16T00:38:34;20.50;99.90
70548;DHT22;58099;43.406;3.698;2022-10-16T00:41:00;20.50;99.90
70548;DHT22;58099;43.406;3.698;2022-10-16T00:43:37;20.50;99.90
70548;DHT22;58099;43.406;3.698;2022-10-16T00:46:16;20.50;99.90
70548;DHT22;58099;43.406;3.698;2022-10-16T00:51:40;20.50;99.90
70548;DHT22;58099;43.406;3.698;2022-10-16T00:54:22;20.50;99.90
70548;DHT22;58099;43.406;3.698;2022-10-16T00:56:49;20.50;99.90
70548;DHT22;58099;43.406;3.698;2022-10-16T00:59:23;20.50;99.90
70548;DHT22;58099;43.406;3.698;2022-10-16T01:01:50;20.50;99.90
70548;DHT22;58099;43.406;3.698;2022-10-16T01:04:17;20.50;99.90
70548;DHT22;58099;43.406;3.698;2022-10-16T01:06:55;20.50;99.90
70548;DHT22;58099;43.406;3.698;2022-10-16T01:14:54;20.50;99.90
70548;DHT22;58099;43.406;3.698;2022-10-16T01:20:26;20.50;99.90
70548;DHT22;58099;43.406;3.698;2022-10-16T01:26:13;20.50;99.90
70548;DHT22;58099;43.406;3.698;2022-10-16T01:28:54;20.50;99.90
70548;DHT22;58099;43.406;3.698;2022-10-16T01:31:25;20.50;99.90
70548;DHT22;58099;43.406;3.698;2022-10-16T01:34:05;20.50;99.90
70548;DHT22;58099;43.406;3.698;2022-10-16T01:36:38;20.50;99.90
70548;DHT22;58099;43.406;3.698;2022-10-16T01:39:06;20.50;99.90
70548;DHT22;58099;43.406;3.698;2022-10-16T01:41:44;20.50;99.90
70548;DHT22;58099;43.406;3.698;2022-10-16T01:44:16;20.50;99.90
70548;DHT22;58099;43.406;3.698;2022-10-16T01:46:46;20.50;99.90
70548;DHT22;58099;43.406;3.698;2022-10-16T01:49:13;20.50;99.90
70548;DHT22;58099;43.406;3.698;2022-10-16T01:51:38;20.50;99.90
70548;DHT22;58099;43.406;3.698;2022-10-16T01:54:06;20.40;99.90
70548;DHT22;58099;43.406;3.698;2022-10-16T01:56:34;20.50;99.90
70548;DHT22;58099;43.406;3.698;2022-10-16T01:59:05;20.40;99.90
70548;DHT22;58099;43.406;3.698;2022-10-16T02:01:34;20.40;99.90
70548;DHT22;58099;43.406;3.698;2022-10-16T02:04:07;20.40;99.90
70548;DHT22;58099;43.406;3.698;2022-10-16T02:06:34;20.40;99.90
70548;DHT22;58099;43.406;3.698;2022-10-16T02:09:01;20.40;99.90
70548;DHT22;58099;43.406;3.698;2022-10-16T02:11:26;20.40;99.90
70548;DHT22;58099;43.406;3.698;2022-10-16T02:13:58;20.40;99.90
70548;DHT22;58099;43.406;3.698;2022-10-16T02:16:38;20.40;99.90
70548;DHT22;58099;43.406;3.698;2022-10-16T02:19:05;20.40;99.90
70548;DHT22;58099;43.406;3.698;2022-10-16T02:26:51;20.50;99.90
70548;DHT22;58099;43.406;3.698;2022-10-16T02:29:22;20.40;99.90
70548;DHT22;58099;43.406;3.698;2022-10-16T02:31:52;20.40;99.90
70548;DHT22;58099;43.406;3.698;2022-10-16T02:34:21;20.40;99.90
70548;DHT22;58099;43.406;3.698;2022-10-16T02:36:50;20.40;99.90
70548;DHT22;58099;43.406;3.698;2022-10-16T02:39:17;20.40;99.90
70548;DHT22;58099;43.406;3.698;2022-10-16T02:41:43;20.40;99.90
70548;DHT22;58099;43.406;3.698;2022-10-16T02:44:09;20.40;99.90
70548;DHT22;58099;43.406;3.698;2022-10-16T02:46:35;20.40;99.90
70548;DHT22;58099;43.406;3.698;2022-10-16T02:49:00;20.40;99.90
70548;DHT22;58099;43.406;3.698;2022-10-16T02:51:26;20.30;99.90
70548;DHT22;58099;43.406;3.698;2022-10-16T02:53:52;20.40;99.90
70548;DHT22;58099;43.406;3.698;2022-10-16T02:56:18;20.40;99.90
70548;DHT22;58099;43.406;3.698;2022-10-16T02:58:44;20.40;99.90
70548;DHT22;58099;43.406;3.698;2022-10-16T03:01:10;20.40;99.90
70548;DHT22;58099;43.406;3.698;2022-10-16T03:03:37;20.40;99.90
70548;DHT22;58099;43.406;3.698;2022-10-16T03:06:03;20.40;99.90
70548;DHT22;58099;43.406;3.698;2022-10-16T03:08:29;20.40;99.90
70548;DHT22;58099;43.406;3.698;2022-10-16T03:10:55;20.40;99.90
70548;DHT22;58099;43.406;3.698;2022-10-16T03:13:20;20.40;99.90
70548;DHT22;58099;43.406;3.698;2022-10-16T03:15:46;20.40;99.90
70548;DHT22;58099;43.406;3.698;2022-10-16T03:18:12;20.40;99.90
70548;DHT22;58099;43.406;3.698;2022-10-16T03:20:37;20.40;99.90
70548;DHT22;58099;43.406;3.698;2022-10-16T03:23:03;20.40;99.90
70548;DHT22;58099;43.406;3.698;2022-10-16T03:25:29;20.40;99.90
70548;DHT22;58099;43.406;3.698;2022-10-16T03:27:55;20.30;99.90
70548;DHT22;58099;43.406;3.698;2022-10-16T03:30:21;20.30;99.90
70548;DHT22;58099;43.406;3.698;2022-10-16T03:32:46;20.40;99.90
70548;DHT22;58099;43.406;3.698;2022-10-16T03:35:12;20.30;99.90
70548;DHT22;58099;43.406;3.698;2022-10-16T03:37:38;20.40;99.90
70548;DHT22;58099;43.406;3.698;2022-10-16T03:40:05;20.40;99.90
70548;DHT22;58099;43.406;3.698;2022-10-16T03:42:30;20.30;99.90
70548;DHT22;58099;43.406;3.698;2022-10-16T03:44:56;20.40;99.90
70548;DHT22;58099;43.406;3.698;2022-10-16T03:47:22;20.30;99.90
70548;DHT22;58099;43.406;3.698;2022-10-16T03:49:49;20.30;99.90
70548;DHT22;58099;43.406;3.698;2022-10-16T03:52:15;20.30;99.90
70548;DHT22;58099;43.406;3.698;2022-10-16T03:54:41;20.30;99.90
70548;DHT22;58099;43.406;3.698;2022-10-16T03:57:06;20.30;99.90
70548;DHT22;58099;43.406;3.698;2022-10-16T03:59:32;20.30;99.90
70548;DHT22;58099;43.406;3.698;2022-10-16T04:01:58;20.30;99.90
70548;DHT22;58099;43.406;3.698;2022-10-16T04:04:23;20.30;99.90
70548;DHT22;58099;43.406;3.698;2022-10-16T04:06:50;20.30;99.90
70548;DHT22;58099;43.406;3.698;2022-10-16T04:09:16;20.30;99.90
70548;DHT22;58099;43.406;3.698;2022-10-16T04:11:42;20.30;99.90
70548;DHT22;58099;43.406;3.698;2022-10-16T04:14:08;20.30;99.90
70548;DHT22;58099;43.406;3.698;2022-10-16T04:16:34;20.30;99.90
70548;DHT22;58099;43.406;3.698;2022-10-16T04:19:00;20.30;99.90
70548;DHT22;58099;43.406;3.698;2022-10-16T04:21:26;20.30;99.90
70548;DHT22;58099;43.406;3.698;2022-10-16T04:23:52;20.30;99.90
70548;DHT22;58099;43.406;3.698;2022-10-16T04:26:17;20.30;99.90
70548;DHT22;58099;43.406;3.698;2022-10-16T04:28:43;20.20;99.90
70548;DHT22;58099;43.406;3.698;2022-10-16T04:31:09;20.20;99.90
70548;DHT22;58099;43.406;3.698;2022-10-16T04:33:34;20.30;99.90
70548;DHT22;58099;43.406;3.698;2022-10-16T04:36:01;20.30;99.90
70548;DHT22;58099;43.406;3.698;2022-10-16T04:38:27;20.30;99.90
70548;DHT22;58099;43.406;3.698;2022-10-16T04:40:53;20.30;99.90
70548;DHT22;58099;43.406;3.698;2022-10-16T04:43:19;20.30;99.90
70548;DHT22;58099;43.406;3.698;2022-10-16T04:45:45;20.30;99.90
70548;DHT22;58099;43.406;3.698;2022-10-16T04:48:11;20.30;99.90
70548;DHT22;58099;43.406;3.698;2022-10-16T04:50:37;20.30;99.90
70548;DHT22;58099;43.406;3.698;2022-10-16T04:53:02;20.30;99.90
70548;DHT22;58099;43.406;3.698;2022-10-16T04:55:28;20.40;99.90
70548;DHT22;58099;43.406;3.698;2022-10-16T04:57:54;20.40;99.90
70548;DHT22;58099;43.406;3.698;2022-10-16T05:00:20;20.30;99.90
70548;DHT22;58099;43.406;3.698;2022-10-16T05:02:46;20.30;99.90
70548;DHT22;58099;43.406;3.698;2022-10-16T05:05:11;20.40;99.90
70548;DHT22;58099;43.406;3.698;2022-10-16T05:07:37;20.40;99.90
70548;DHT22;58099;43.406;3.698;2022-10-16T05:10:03;20.30;99.90
70548;DHT22;58099;43.406;3.698;2022-10-16T05:12:29;20.40;99.90
70548;DHT22;58099;43.406;3.698;2022-10-16T05:14:54;20.40;99.90
70548;DHT22;58099;43.406;3.698;2022-10-16T05:17:24;20.40;99.90
70548;DHT22;58099;43.406;3.698;2022-10-16T05:19:50;20.40;99.90
70548;DHT22;58099;43.406;3.698;2022-10-16T05:22:16;20.40;99.90
70548;DHT22;58099;43.406;3.698;2022-10-16T05:24:42;20.40;99.90
70548;DHT22;58099;43.406;3.698;2022-10-16T05:27:07;20.40;99.90
70548;DHT22;58099;43.406;3.698;2022-10-16T05:29:33;20.40;99.90
70548;DHT22;58099;43.406;3.698;2022-10-16T05:31:59;20.40;99.90
70548;DHT22;58099;43.406;3.698;2022-10-16T05:34:24;20.40;99.90
70548;DHT22;58099;43.406;3.698;2022-10-16T05:36:50;20.40;99.90
70548;DHT22;58099;43.406;3.698;2022-10-16T05:39:16;20.40;99.90
70548;DHT22;58099;43.406;3.698;2022-10-16T05:41:42;20.40;99.90
70548;DHT22;58099;43.406;3.698;2022-10-16T05:44:08;20.40;99.90
70548;DHT22;58099;43.406;3.698;2022-10-16T05:46:34;20.30;99.90
70548;DHT22;58099;43.406;3.698;2022-10-16T05:49:00;20.30;99.90
70548;DHT22;58099;43.406;3.698;2022-10-16T05:51:26;20.30;99.90
70548;DHT22;58099;43.406;3.698;2022-10-16T05:53:52;20.30;99.90
70548;DHT22;58099;43.406;3.698;2022-10-16T05:56:18;20.30;99.90
70548;DHT22;58099;43.406;3.698;2022-10-16T05:58:44;20.30;99.90
70548;DHT22;58099;43.406;3.698;2022-10-16T06:01:16;20.30;99.90
70548;DHT22;58099;43.406;3.698;2022-10-16T06:03:42;20.30;99.90
70548;DHT22;58099;43.406;3.698;2022-10-16T06:06:19;20.30;99.90
70548;DHT22;58099;43.406;3.698;2022-10-16T06:08:47;20.30;99.90
70548;DHT22;58099;43.406;3.698;2022-10-16T06:11:17;20.30;99.90
70548;DHT22;58099;43.406;3.698;2022-10-16T06:13:43;20.30;99.90
70548;DHT22;58099;43.406;3.698;2022-10-16T06:16:11;20.30;99.90
70548;DHT22;58099;43.406;3.698;2022-10-16T06:18:38;20.30;99.90
70548;DHT22;58099;43.406;3.698;2022-10-16T06:21:24;20.30;99.90
70548;DHT22;58099;43.406;3.698;2022-10-16T06:23:51;20.30;99.90
70548;DHT22;58099;43.406;3.698;2022-10-16T06:26:19;20.30;99.90
70548;DHT22;58099;43.406;3.698;2022-10-16T06:28:45;20.30;99.90
70548;DHT22;58099;43.406;3.698;2022-10-16T06:31:11;20.30;99.90
70548;DHT22;58099;43.406;3.698;2022-10-16T06:33:38;20.30;99.90
70548;DHT22;58099;43.406;3.698;2022-10-16T06:36:09;20.30;99.90
70548;DHT22;58099;43.406;3.698;2022-10-16T06:38:35;20.30;99.90
70548;DHT22;58099;43.406;3.698;2022-10-16T06:41:01;20.30;99.90
70548;DHT22;58099;43.406;3.698;2022-10-16T06:43:28;20.30;99.90
70548;DHT22;58099;43.406;3.698;2022-10-16T06:45:57;20.30;99.90
70548;DHT22;58099;43.406;3.698;2022-10-16T06:48:24;20.30;99.90
70548;DHT22;58099;43.406;3.698;2022-10-16T06:53:35;20.30;99.90
70548;DHT22;58099;43.406;3.698;2022-10-16T06:56:15;20.30;99.90
70548;DHT22;58099;43.406;3.698;2022-10-16T06:58:42;20.30;99.90
70548;DHT22;58099;43.406;3.698;2022-10-16T07:01:08;20.30;99.90
70548;DHT22;58099;43.406;3.698;2022-10-16T07:03:42;20.30;99.90
70548;DHT22;58099;43.406;3.698;2022-10-16T07:06:10;20.40;99.90
70548;DHT22;58099;43.406;3.698;2022-10-16T07:08:38;20.50;99.90
70548;DHT22;58099;43.406;3.698;2022-10-16T07:11:06;20.60;99.90
70548;DHT22;58099;43.406;3.698;2022-10-16T07:13:40;20.70;99.90
70548;DHT22;58099;43.406;3.698;2022-10-16T07:18:32;20.60;99.90
70548;DHT22;58099;43.406;3.698;2022-10-16T07:21:08;20.60;99.90
70548;DHT22;58099;43.406;3.698;2022-10-16T07:23:34;20.80;99.90
70548;DHT22;58099;43.406;3.698;2022-10-16T07:26:00;20.90;99.90
70548;DHT22;58099;43.406;3.698;2022-10-16T07:28:26;20.80;99.90
70548;DHT22;58099;43.406;3.698;2022-10-16T07:30:52;20.90;99.90
70548;DHT22;58099;43.406;3.698;2022-10-16T07:33:18;21.00;99.90
70548;DHT22;58099;43.406;3.698;2022-10-16T07:35:49;21.10;99.90
70548;DHT22;58099;43.406;3.698;2022-10-16T07:38:15;21.10;99.90
70548;DHT22;58099;43.406;3.698;2022-10-16T07:40:41;21.20;99.90
70548;DHT22;58099;43.406;3.698;2022-10-16T07:43:06;21.20;99.90
70548;DHT22;58099;43.406;3.698;2022-10-16T07:45:32;21.10;99.90
70548;DHT22;58099;43.406;3.698;2022-10-16T07:47:58;21.10;99.90
70548;DHT22;58099;43.406;3.698;2022-10-16T07:50:23;21.00;99.90
70548;DHT22;58099;43.406;3.698;2022-10-16T07:52:49;21.00;99.90
70548;DHT22;58099;43.406;3.698;2022-10-16T07:55:15;21.00;99.90
70548;DHT22;58099;43.406;3.698;2022-10-16T07:57:40;21.00;99.90
70548;DHT22;58099;43.406;3.698;2022-10-16T08:00:07;21.10;99.90
70548;DHT22;58099;43.406;3.698;2022-10-16T08:02:32;21.10;99.90
70548;DHT22;58099;43.406;3.698;2022-10-16T08:04:58;21.10;99.90
70548;DHT22;58099;43.406;3.698;2022-10-16T08:07:24;21.20;99.90
70548;DHT22;58099;43.406;3.698;2022-10-16T08:09:50;21.20;99.90
70548;DHT22;58099;43.406;3.698;2022-10-16T08:12:17;21.20;99.90
70548;DHT22;58099;43.406;3.698;2022-10-16T08:14:42;21.20;99.90
70548;DHT22;58099;43.406;3.698;2022-10-16T08:17:08;21.20;99.90
70548;DHT22;58099;43.406;3.698;2022-10-16T08:19:34;21.20;99.90
70548;DHT22;58099;43.406;3.698;2022-10-16T08:22:00;21.10;99.90
70548;DHT22;58099;43.406;3.698;2022-10-16T08:24:26;21.10;99.90
70548;DHT22;58099;43.406;3.698;2022-10-16T08:26:53;21.10;99.90
70548;DHT22;58099;43.406;3.698;2022-10-16T08:29:19;21.00;99.90
70548;DHT22;58099;43.406;3.698;2022-10-16T08:31:45;21.00;99.90
70548;DHT22;58099;43.406;3.698;2022-10-16T08:34:11;21.00;99.90
70548;DHT22;58099;43.406;3.698;2022-10-16T08:36:36;21.00;99.90
70548;DHT22;58099;43.406;3.698;2022-10-16T08:39:03;21.10;99.90
70548;DHT22;58099;43.406;3.698;2022-10-16T08:47:43;21.10;99.90
70548;DHT22;58099;43.406;3.698;2022-10-16T08:50:13;21.10;99.90
70548;DHT22;58099;43.406;3.698;2022-10-16T08:52:41;21.20;99.90
70548;DHT22;58099;43.406;3.698;2022-10-16T08:57:49;21.20;99.90
70548;DHT22;58099;43.406;3.698;2022-10-16T09:00:15;21.20;99.90
70548;DHT22;58099;43.406;3.698;2022-10-16T09:19:44;21.10;99.90
70548;DHT22;58099;43.406;3.698;2022-10-16T09:22:15;21.20;99.90
70548;DHT22;58099;43.406;3.698;2022-10-16T09:24:41;21.40;99.90
70548;DHT22;58099;43.406;3.698;2022-10-16T09:27:15;21.50;99.90
70548;DHT22;58099;43.406;3.698;2022-10-16T09:29:41;21.60;99.90
70548;DHT22;58099;43.406;3.698;2022-10-16T09:32:27;21.50;99.90
70548;DHT22;58099;43.406;3.698;2022-10-16T09:34:55;21.60;99.90
70548;DHT22;58099;43.406;3.698;2022-10-16T09:37:24;21.70;99.90
70548;DHT22;58099;43.406;3.698;2022-10-16T09:39:52;21.50;99.90
70548;DHT22;58099;43.406;3.698;2022-10-16T09:42:30;21.40;99.90
70548;DHT22;58099;43.406;3.698;2022-10-16T09:44:56;21.30;99.90
70548;DHT22;58099;43.406;3.698;2022-10-16T09:47:30;21.40;99.90
70548;DHT22;58099;43.406;3.698;2022-10-16T09:50:02;21.40;99.90
70548;DHT22;58099;43.406;3.698;2022-10-16T09:52:31;21.30;99.90
70548;DHT22;58099;43.406;3.698;2022-10-16T09:54:58;21.40;99.90
70548;DHT22;58099;43.406;3.698;2022-10-16T09:57:24;21.50;99.90
70548;DHT22;58099;43.406;3.698;2022-10-16T09:59:55;21.50;99.90
70548;DHT22;58099;43.406;3.698;2022-10-16T10:02:35;21.50;99.90
70548;DHT22;58099;43.406;3.698;2022-10-16T10:05:04;21.50;99.90
70548;DHT22;58099;43.406;3.698;2022-10-16T10:07:33;21.50;99.90
70548;DHT22;58099;43.406;3.698;2022-10-16T10:10:03;21.30;99.90
70548;DHT22;58099;43.406;3.698;2022-10-16T10:12:30;21.30;99.90
70548;DHT22;58099;43.406;3.698;2022-10-16T10:15:11;21.40;99.90
70548;DHT22;58099;43.406;3.698;2022-10-16T10:17:51;21.40;99.90
70548;DHT22;58099;43.406;3.698;2022-10-16T10:20:29;21.40;99.90
70548;DHT22;58099;43.406;3.698;2022-10-16T10:22:56;21.30;99.90
70548;DHT22;58099;43.406;3.698;2022-10-16T10:39:07;21.20;99.90
70548;DHT22;58099;43.406;3.698;2022-10-16T10:44:52;21.40;99.90
70548;DHT22;58099;43.406;3.698;2022-10-16T10:47:37;21.40;99.90
70548;DHT22;58099;43.406;3.698;2022-10-16T11:14:42;21.30;99.90
70548;DHT22;58099;43.406;3.698;2022-10-16T11:17:22;21.30;99.90
70548;DHT22;58099;43.406;3.698;2022-10-16T11:25:34;21.50;99.90
70548;DHT22;58099;43.406;3.698;2022-10-16T11:28:26;21.50;99.90
70548;DHT22;58099;43.406;3.698;2022-10-16T11:31:39;21.50;99.90
70548;DHT22;58099;43.406;3.698;2022-10-16T11:34:57;21.50;99.90
70548;DHT22;58099;43.406;3.698;2022-10-16T11:37:28;21.50;99.90
70548;DHT22;58099;43.406;3.698;2022-10-16T11:40:02;21.60;99.90
70548;DHT22;58099;43.406;3.698;2022-10-16T11:42:40;21.60;99.90
70548;DHT22;58099;43.406;3.698;2022-10-16T11:47:43;21.50;99.90
70548;DHT22;58099;43.406;3.698;2022-10-16T11:53:21;21.40;99.90
70548;DHT22;58099;43.406;3.698;2022-10-16T11:55:49;21.50;99.90
70548;DHT22;58099;43.406;3.698;2022-10-16T11:58:33;21.40;99.90
70548;DHT22;58099;43.406;3.698;2022-10-16T12:01:28;21.50;99.90
70548;DHT22;58099;43.406;3.698;2022-10-16T12:06:52;21.60;99.90
70548;DHT22;58099;43.406;3.698;2022-10-16T12:09:31;21.60;99.90
70548;DHT22;58099;43.406;3.698;2022-10-16T12:11:58;21.60;99.90
70548;DHT22;58099;43.406;3.698;2022-10-16T12:16:58;21.70;99.90
70548;DHT22;58099;43.406;3.698;2022-10-16T12:19:28;21.60;99.90
70548;DHT22;58099;43.406;3.698;2022-10-16T12:21:59;21.80;99.90
70548;DHT22;58099;43.406;3.698;2022-10-16T12:24:38;21.80;99.90
70548;DHT22;58099;43.406;3.698;2022-10-16T12:29:59;22.20;99.90
70548;DHT22;58099;43.406;3.698;2022-10-16T12:32:33;22.10;99.90
70548;DHT22;58099;43.406;3.698;2022-10-16T12:35:01;22.10;99.90
70548;DHT22;58099;43.406;3.698;2022-10-16T12:37:36;21.90;99.90
70548;DHT22;58099;43.406;3.698;2022-10-16T12:40:23;21.80;99.90
70548;DHT22;58099;43.406;3.698;2022-10-16T12:42:51;21.80;99.90
70548;DHT22;58099;43.406;3.698;2022-10-16T12:47:53;21.90;99.90
70548;DHT22;58099;43.406;3.698;2022-10-16T12:50:37;22.10;99.90
70548;DHT22;58099;43.406;3.698;2022-10-16T12:53:21;22.20;99.90
70548;DHT22;58099;43.406;3.698;2022-10-16T12:59:13;22.40;99.90
70548;DHT22;58099;43.406;3.698;2022-10-16T13:02:07;22.30;99.90
70548;DHT22;58099;43.406;3.698;2022-10-16T13:05:22;22.00;99.90
70548;DHT22;58099;43.406;3.698;2022-10-16T13:08:18;22.10;99.90
70548;DHT22;58099;43.406;3.698;2022-10-16T13:10:26;22.20;99.90
70548;DHT22;58099;43.406;3.698;2022-10-16T13:16:20;22.10;99.90
70548;DHT22;58099;43.406;3.698;2022-10-16T13:21:59;22.10;99.90
70548;DHT22;58099;43.406;3.698;2022-10-16T13:27:56;22.00;99.90
70548;DHT22;58099;43.406;3.698;2022-10-16T13:30:57;21.90;99.90
70548;DHT22;58099;43.406;3.698;2022-10-16T13:33:13;21.80;99.90
70548;DHT22;58099;43.406;3.698;2022-10-16T13:35:48;21.80;99.90
70548;DHT22;58099;43.406;3.698;2022-10-16T13:38:17;21.80;99.90
70548;DHT22;58099;43.406;3.698;2022-10-16T13:43:47;21.90;99.90
70548;DHT22;58099;43.406;3.698;2022-10-16T13:46:17;21.90;99.90
70548;DHT22;58099;43.406;3.698;2022-10-16T13:48:43;22.00;99.90
70548;DHT22;58099;43.406;3.698;2022-10-16T13:51:17;21.90;99.90
70548;DHT22;58099;43.406;3.698;2022-10-16T13:53:44;22.00;99.90
70548;DHT22;58099;43.406;3.698;2022-10-16T13:56:15;21.90;99.90
70548;DHT22;58099;43.406;3.698;2022-10-16T13:58:42;21.90;99.90
70548;DHT22;58099;43.406;3.698;2022-10-16T14:01:20;21.80;99.90
70548;DHT22;58099;43.406;3.698;2022-10-16T14:03:49;21.80;99.90
70548;DHT22;58099;43.406;3.698;2022-10-16T14:06:19;21.80;99.90
70548;DHT22;58099;43.406;3.698;2022-10-16T14:09:13;21.70;99.90
70548;DHT22;58099;43.406;3.698;2022-10-16T14:11:48;21.80;99.90
70548;DHT22;58099;43.406;3.698;2022-10-16T14:14:15;21.70;99.90
70548;DHT22;58099;43.406;3.698;2022-10-16T14:16:43;21.80;99.90
70548;DHT22;58099;43.406;3.698;2022-10-16T14:19:35;21.80;99.90
70548;DHT22;58099;43.406;3.698;2022-10-16T14:22:01;21.80;99.90
70548;DHT22;58099;43.406;3.698;2022-10-16T14:26:56;21.80;99.90
70548;DHT22;58099;43.406;3.698;2022-10-16T14:29:24;21.80;99.90
70548;DHT22;58099;43.406;3.698;2022-10-16T14:32:05;21.70;99.90
70548;DHT22;58099;43.406;3.698;2022-10-16T14:34:36;21.70;99.90
70548;DHT22;58099;43.406;3.698;2022-10-16T14:39:39;21.60;99.90
70548;DHT22;58099;43.406;3.698;2022-10-16T14:42:14;21.50;99.90
70548;DHT22;58099;43.406;3.698;2022-10-16T14:44:42;21.60;99.90
70548;DHT22;58099;43.406;3.698;2022-10-16T14:47:13;21.50;99.90
70548;DHT22;58099;43.406;3.698;2022-10-16T14:49:41;21.40;99.90
70548;DHT22;58099;43.406;3.698;2022-10-16T14:52:11;21.40;99.90
70548;DHT22;58099;43.406;3.698;2022-10-16T14:54:38;21.40;99.90
70548;DHT22;58099;43.406;3.698;2022-10-16T14:57:04;21.40;99.90
70548;DHT22;58099;43.406;3.698;2022-10-16T14:59:34;21.40;99.90
70548;DHT22;58099;43.406;3.698;2022-10-16T15:02:21;21.40;99.90
70548;DHT22;58099;43.406;3.698;2022-10-16T15:04:49;21.40;99.90
70548;DHT22;58099;43.406;3.698;2022-10-16T15:07:14;21.40;99.90
70548;DHT22;58099;43.406;3.698;2022-10-16T15:09:40;21.30;99.90
70548;DHT22;58099;43.406;3.698;2022-10-16T15:12:06;21.30;99.90
70548;DHT22;58099;43.406;3.698;2022-10-16T15:14:32;21.20;99.90
70548;DHT22;58099;43.406;3.698;2022-10-16T15:16:57;21.20;99.90
70548;DHT22;58099;43.406;3.698;2022-10-16T15:19:23;21.20;99.90
70548;DHT22;58099;43.406;3.698;2022-10-16T15:21:49;21.10;99.90
70548;DHT22;58099;43.406;3.698;2022-10-16T15:24:15;21.10;99.90
70548;DHT22;58099;43.406;3.698;2022-10-16T15:26:41;21.10;99.90
70548;DHT22;58099;43.406;3.698;2022-10-16T15:29:07;21.10;99.90
70548;DHT22;58099;43.406;3.698;2022-10-16T15:31:33;21.10;99.90
70548;DHT22;58099;43.406;3.698;2022-10-16T15:33:59;21.10;99.90
70548;DHT22;58099;43.406;3.698;2022-10-16T15:36:31;21.10;99.90
70548;DHT22;58099;43.406;3.698;2022-10-16T15:38:59;21.10;99.90
70548;DHT22;58099;43.406;3.698;2022-10-16T15:41:25;21.00;99.90
70548;DHT22;58099;43.406;3.698;2022-10-16T15:43:51;21.10;99.90
70548;DHT22;58099;43.406;3.698;2022-10-16T15:46:22;21.00;99.90
70548;DHT22;58099;43.406;3.698;2022-10-16T15:48:49;21.10;99.90
70548;DHT22;58099;43.406;3.698;2022-10-16T15:51:16;21.00;99.90
70548;DHT22;58099;43.406;3.698;2022-10-16T15:53:43;21.00;99.90
70548;DHT22;58099;43.406;3.698;2022-10-16T15:56:10;21.00;99.90
70548;DHT22;58099;43.406;3.698;2022-10-16T15:58:36;21.00;99.90
70548;DHT22;58099;43.406;3.698;2022-10-16T16:01:03;21.00;99.90
70548;DHT22;58099;43.406;3.698;2022-10-16T16:03:30;21.00;99.90
70548;DHT22;58099;43.406;3.698;2022-10-16T16:05:56;20.90;99.90
70548;DHT22;58099;43.406;3.698;2022-10-16T16:08:22;21.00;99.90
70548;DHT22;58099;43.406;3.698;2022-10-16T16:11:11;20.90;99.90
70548;DHT22;58099;43.406;3.698;2022-10-16T16:13:37;20.90;99.90
70548;DHT22;58099;43.406;3.698;2022-10-16T16:16:12;20.90;99.90
70548;DHT22;58099;43.406;3.698;2022-10-16T16:18:38;20.90;99.90
70548;DHT22;58099;43.406;3.698;2022-10-16T16:21:04;20.90;99.90
70548;DHT22;58099;43.406;3.698;2022-10-16T16:23:31;20.90;99.90
70548;DHT22;58099;43.406;3.698;2022-10-16T16:26:26;20.90;99.90
70548;DHT22;58099;43.406;3.698;2022-10-16T16:28:53;20.90;99.90
70548;DHT22;58099;43.406;3.698;2022-10-16T16:31:20;20.80;99.90
70548;DHT22;58099;43.406;3.698;2022-10-16T16:33:46;20.80;99.90
70548;DHT22;58099;43.406;3.698;2022-10-16T16:36:12;20.80;99.90
70548;DHT22;58099;43.406;3.698;2022-10-16T16:38:38;20.70;99.90
70548;DHT22;58099;43.406;3.698;2022-10-16T16:41:19;20.70;99.90
70548;DHT22;58099;43.406;3.698;2022-10-16T16:43:45;20.70;99.90
70548;DHT22;58099;43.406;3.698;2022-10-16T16:46:11;20.70;99.90
70548;DHT22;58099;43.406;3.698;2022-10-16T16:48:37;20.70;99.90
70548;DHT22;58099;43.406;3.698;2022-10-16T16:51:09;20.70;99.90
70548;DHT22;58099;43.406;3.698;2022-10-16T16:53:47;20.60;99.90
70548;DHT22;58099;43.406;3.698;2022-10-16T16:56:14;20.70;99.90
70548;DHT22;58099;43.406;3.698;2022-10-16T16:58:40;20.70;99.90
70548;DHT22;58099;43.406;3.698;2022-10-16T17:01:07;20.70;99.90
70548;DHT22;58099;43.406;3.698;2022-10-16T17:03:35;20.60;99.90
70548;DHT22;58099;43.406;3.698;2022-10-16T17:06:04;20.60;99.90
70548;DHT22;58099;43.406;3.698;2022-10-16T17:08:30;20.70;99.90
70548;DHT22;58099;43.406;3.698;2022-10-16T17:10:56;20.60;99.90
70548;DHT22;58099;43.406;3.698;2022-10-16T17:13:26;20.60;99.90
70548;DHT22;58099;43.406;3.698;2022-10-16T17:15:53;20.60;99.90
70548;DHT22;58099;43.406;3.698;2022-10-16T17:18:23;20.60;99.90
70548;DHT22;58099;43.406;3.698;2022-10-16T17:20:49;20.60;99.90
70548;DHT22;58099;43.406;3.698;2022-10-16T17:23:16;20.60;99.90
70548;DHT22;58099;43.406;3.698;2022-10-16T17:25:43;20.60;99.90
70548;DHT22;58099;43.406;3.698;2022-10-16T17:28:11;20.60;99.90
70548;DHT22;58099;43.406;3.698;2022-10-16T17:30:39;20.60;99.90
70548;DHT22;58099;43.406;3.698;2022-10-16T17:33:05;20.60;99.90
70548;DHT22;58099;43.406;3.698;2022-10-16T17:35:45;20.60;99.90
70548;DHT22;58099;43.406;3.698;2022-10-16T17:38:13;20.60;99.90
70548;DHT22;58099;43.406;3.698;2022-10-16T17:40:39;20.60;99.90
70548;DHT22;58099;43.406;3.698;2022-10-16T17:43:05;20.60;99.90
70548;DHT22;58099;43.406;3.698;2022-10-16T17:45:35;20.60;99.90
70548;DHT22;58099;43.406;3.698;2022-10-16T17:48:01;20.60;99.90
70548;DHT22;58099;43.406;3.698;2022-10-16T17:50:27;20.60;99.90
70548;DHT22;58099;43.406;3.698;2022-10-16T17:52:53;20.60;99.90
70548;DHT22;58099;43.406;3.698;2022-10-16T17:55:18;20.60;99.90
70548;DHT22;58099;43.406;3.698;2022-10-16T17:57:44;20.60;99.90
70548;DHT22;58099;43.406;3.698;2022-10-16T18:00:10;20.60;99.90